Latest Weather Observations for Merimbula

IDN60801

Issued at 9:02 pm EDT Friday 27 March 2015 (issued every 30 minutes, with the page automatically refreshed every 10 minutes)

About weather observations | Map of weather stations | Latest weather observations for NSW | Other Formats
Station Details ID: 069147 Name: MERIMBULA AIRPORT AWS Lat: -36.91 Lon: 149.90 Height: 1.5 m
Data from the previous 72 hours. | See also: Recent months at Merimbula
Date/Time
EDT
Temp
°C
App
Temp
°C
Dew
Point
Rel
Hum
%
Delta-T
°C
Wind Press
QNH
hPa
Press
MSL
hPa
Rain
since 9 am
mm
Dir
 
Spd
km/h
Gust
km/h
Spd
kts
Gust
kts
27/09:00pm 17.9 14.2 6.4 47 5.7 WSW 15 17 8 9 1019.0 1019.0 0.0
27/08:30pm 18.3 13.3 6.5 46 5.8 WSW 22 35 12 19 1018.6 1018.6 0.0
27/08:00pm 18.8 14.8 6.6 45 6.1 WSW 17 26 9 14 1018.3 1018.3 0.0
27/07:30pm 18.9 14.5 6.4 44 6.2 WSW 19 28 10 15 1017.6 1017.6 0.0
27/07:00pm 19.3 13.5 6.1 42 6.5 WSW 26 44 14 24 1017.2 1017.2 0.0
27/06:37pm 19.9 13.6 5.9 40 6.9 WSW 28 46 15 25 1016.9 1016.9 0.0
27/06:30pm 20.1 14.9 5.7 39 7.1 WSW 22 46 12 25 1016.8 1016.8 0.0
27/06:01pm 21.3 14.5 5.2 35 7.9 WSW 30 48 16 26 1016.4 1016.4 0.0
27/06:00pm 21.3 14.5 5.2 35 7.9 WSW 30 44 16 24 1016.3 1016.3 0.0
27/05:34pm 22.1 14.9 5.1 33 8.4 W 32 52 17 28 1015.9 1015.9 0.0
27/05:30pm 21.8 14.1 5.3 34 8.2 W 35 50 19 27 1015.8 1015.8 0.0
27/05:01pm 21.8 15.3 4.8 33 8.4 WSW 28 46 15 25 1015.2 1015.2 0.0
27/05:00pm 22.0 15.6 5.0 33 8.4 WSW 28 46 15 25 1015.1 1015.1 0.0
27/04:50pm 22.1 16.0 4.6 32 8.6 WSW 26 46 14 25 1014.9 1014.9 0.0
27/04:30pm 22.1 17.1 4.6 32 8.6 W 20 35 11 19 1014.6 1014.6 0.0
27/04:00pm 22.4 17.8 5.8 34 8.3 WSW 19 26 10 14 1014.8 1014.8 0.0
27/03:30pm 22.7 18.4 5.2 32 8.7 WSW 17 32 9 17 1014.9 1014.9 0.0
27/03:00pm 22.9 16.5 5.3 32 8.8 WSW 28 43 15 23 1015.2 1015.2 0.0
27/02:30pm 21.4 15.8 5.3 35 8.0 SW 24 35 13 19 1015.5 1015.5 0.0
27/02:01pm 21.6 15.5 4.7 33 8.3 SW 26 46 14 25 1015.5 1015.5 0.0
27/02:00pm 21.6 15.5 4.7 33 8.3 SW 26 44 14 24 1015.5 1015.5 0.0
27/01:30pm 22.9 17.0 5.8 33 8.6 WSW 26 44 14 24 1015.6 1015.6 0.0
27/01:00pm 22.2 14.9 4.7 32 8.6 WSW 32 50 17 27 1015.8 1015.8 0.0
27/12:33pm 22.9 16.0 4.4 30 9.1 W 30 48 16 26 1016.0 1016.0 0.0
27/12:30pm 23.2 17.5 4.7 30 9.2 W 24 43 13 23 1016.0 1016.0 0.0
27/12:00pm 22.5 17.8 5.0 32 8.7 W 19 32 10 17 1016.2 1016.2 0.0
27/11:46am 21.8 15.3 4.8 33 8.4 W 28 50 15 27 1016.3 1016.3 0.0
27/11:30am 21.7 16.5 5.6 35 8.0 WNW 22 39 12 21 1016.3 1016.3 0.0
27/11:00am 20.7 15.9 4.7 35 7.8 W 19 30 10 16 1016.7 1016.7 0.0
27/10:30am 20.0 15.5 6.0 40 6.9 W 19 35 10 19 1016.7 1016.7 0.0
27/10:00am 18.9 14.1 4.7 39 6.8 W 19 30 10 16 1017.0 1017.0 0.0
27/09:30am 18.0 15.0 6.2 46 5.8 WNW 11 17 6 9 1017.0 1017.0 0.0
27/09:00am 16.7 12.7 6.8 52 4.9 WNW 17 22 9 12 1017.1 1017.1 0.0
27/08:30am 13.4 10.0 5.8 60 3.6 W 13 22 7 12 1017.1 1017.1 0.0
27/08:28am 13.2 10.3 6.3 63 3.3 WSW 11 22 6 12 1017.1 1017.1 0.0
27/08:00am 7.9 6.5 5.7 86 1.0 S 2 7 1 4 1016.9 1016.9 0.0
27/07:30am 7.0 5.9 5.0 87 0.9 CALM 0 0 0 0 1016.8 1016.8 0.0
27/07:00am 7.2 5.8 5.5 89 0.8 NE 2 11 1 6 1016.6 1016.6 0.0
27/06:30am 6.8 4.3 4.6 86 1.0 SW 7 11 4 6 1016.4 1016.4 0.0
27/06:00am 7.0 5.7 4.0 81 1.3 CALM 0 6 0 3 1016.3 1016.3 0.0
27/05:30am 9.2 7.3 4.8 74 2.0 N 4 9 2 5 1016.2 1016.2 0.0
27/05:00am 10.3 6.8 5.3 71 2.3 WNW 13 20 7 11 1016.1 1016.1 0.0
27/04:30am 10.6 6.5 6.2 74 2.0 NW 17 20 9 11 1016.1 1016.1 0.0
27/04:00am 10.8 7.0 5.8 71 2.3 NW 15 19 8 10 1016.1 1016.1 0.0
27/03:30am 11.3 7.1 3.8 60 3.3 NNW 15 20 8 11 1016.2 1016.2 0.0
27/03:00am 9.7 7.8 6.6 81 1.4 NW 6 17 3 9 1016.5 1016.5 0.0
27/02:30am 8.8 6.5 5.0 77 1.7 S 6 13 3 7 1017.0 1017.0 0.0
27/02:00am 9.5 6.7 5.3 75 1.9 W 9 13 5 7 1016.9 1016.9 0.0
27/01:30am 8.2 7.4 6.7 90 0.7 CALM 0 7 0 4 1017.1 1017.1 0.0
27/01:00am 8.4 7.2 6.5 88 0.9 NW 2 7 1 4 1017.3 1017.3 0.0
27/12:30am 8.9 7.5 7.4 90 0.7 NW 4 11 2 6 1017.4 1017.4 0.0
27/12:00am 9.6 8.4 8.0 90 0.8 WSW 4 9 2 5 1017.6 1017.6 0.0
 
Date/Time
EDT
Temp
°C
App
Temp
°C
Dew
Point
Rel
Hum
%
Delta-T
°C
Wind Press
QNH
hPa
Press
MSL
hPa
Rain
since 9 am
mm
Dir
 
Spd
km/h
Gust
km/h
Spd
kts
Gust
kts
26/11:30pm 10.3 8.8 8.4 88 0.9 S 6 9 3 5 1017.7 1017.7 0.0
26/11:00pm 11.2 10.2 8.9 86 1.1 ESE 4 9 2 5 1017.8 1017.8 0.0
26/10:30pm 12.6 10.8 10.7 88 1.0 NW 11 17 6 9 1017.8 1017.8 0.0
26/10:00pm 12.1 11.1 10.3 89 0.9 NW 6 17 3 9 1018.3 1018.3 0.0
26/09:30pm 12.4 10.7 10.0 85 1.2 W 9 15 5 8 1018.2 1018.2 0.0
26/09:00pm 12.2 12.1 9.6 84 1.3 CALM 0 0 0 0 1018.1 1018.1 0.0
26/08:30pm 13.0 11.6 10.9 87 1.1 NW 9 11 5 6 1017.7 1017.7 0.0
26/08:00pm 13.1 11.7 9.0 76 2.1 SW 6 7 3 4 1017.3 1017.3 0.0
26/07:30pm 14.6 13.1 9.2 70 2.8 SSE 7 11 4 6 1016.9 1016.9 0.0
26/07:00pm 15.8 13.2 9.5 66 3.3 SE 13 17 7 9 1016.4 1016.4 0.0
26/06:30pm 16.6 14.1 9.8 64 3.6 SSE 13 17 7 9 1016.2 1016.2 0.0
26/06:00pm 17.0 14.2 9.9 63 3.7 SSE 15 20 8 11 1015.6 1015.6 0.0
26/05:30pm 18.9 15.8 11.7 63 4.0 SE 19 28 10 15 1015.2 1015.2 0.0
26/05:00pm 18.9 16.3 11.9 64 3.9 SE 17 28 9 15 1014.9 1014.9 0.0
26/04:30pm 19.0 16.1 12.3 65 3.7 SE 19 28 10 15 1014.8 1014.8 0.0
26/04:00pm 19.0 15.3 11.6 62 4.1 SSE 22 30 12 16 1014.6 1014.6 0.0
26/03:30pm 19.0 15.5 12.3 65 3.7 SE 22 33 12 18 1014.3 1014.3 0.0
26/03:00pm 20.2 17.6 13.2 64 4.0 SE 19 28 10 15 1014.1 1014.1 0.0
26/02:30pm 22.2 20.4 12.2 53 5.6 E 13 22 7 12 1014.0 1014.0 0.0
26/02:00pm 21.9 19.6 11.6 52 5.7 ENE 15 22 8 12 1014.1 1014.1 0.0
26/01:30pm 22.1 19.6 11.2 50 6.0 E 15 22 8 12 1014.3 1014.3 0.0
26/01:00pm 22.5 20.4 11.3 49 6.2 E 13 20 7 11 1014.4 1014.4 0.0
26/12:30pm 22.7 20.7 11.4 49 6.3 E 13 22 7 12 1014.8 1014.8 0.0
26/12:00pm 22.3 19.3 10.5 47 6.5 E 17 22 9 12 1015.1 1015.1 0.0
26/11:30am 22.6 20.8 8.0 39 7.7 ESE 7 13 4 7 1015.0 1015.0 0.0
26/11:00am 21.8 19.3 6.5 37 7.8 SSW 9 15 5 8 1015.0 1015.0 0.0
26/10:30am 21.1 17.7 7.7 42 6.9 WNW 15 20 8 11 1015.0 1015.0 0.0
26/10:00am 19.8 16.0 7.5 45 6.3 W 17 26 9 14 1015.2 1015.2 0.0
26/09:30am 17.0 17.5 11.7 71 2.9 CALM 0 0 0 0 1015.2 1015.2 0.0
26/09:00am 14.6 15.8 13.8 95 0.4 CALM 0 0 0 0 1015.1 1015.1 0.0
26/08:30am 12.0 12.4 11.1 94 0.5 CALM 0 2 0 1 1015.2 1015.2 0.0
26/08:00am 11.9 12.2 11.0 94 0.5 CALM 0 0 0 0 1014.8 1014.8 0.0
26/07:30am 11.9 12.3 11.1 95 0.4 CALM 0 0 0 0 1014.6 1014.6 0.0
26/07:00am 11.4 11.5 10.1 92 0.7 CALM 0 0 0 0 1014.3 1014.3 0.0
26/06:30am 11.8 11.6 10.5 92 0.7 SE 2 7 1 4 1014.4 1014.4 0.0
26/06:00am 12.3 11.8 10.7 90 0.8 SW 4 7 2 4 1014.6 1014.6 0.0
26/05:30am 13.2 12.1 11.8 91 0.7 SSW 9 11 5 6 1014.7 1014.7 0.0
26/05:00am 12.6 13.1 11.5 93 0.6 CALM 0 0 0 0 1014.4 1014.4 0.0
26/04:30am 12.2 12.4 10.6 90 0.8 CALM 0 0 0 0 1014.8 1014.8 0.0
26/04:00am 12.6 12.9 10.8 89 0.9 CALM 0 0 0 0 1015.1 1015.1 0.0
26/03:30am 13.3 13.7 11.4 88 1.0 CALM 0 0 0 0 1015.1 1015.1 0.0
26/03:00am 13.8 14.3 11.5 86 1.2 CALM 0 0 0 0 1015.2 1015.2 0.0
26/02:30am 14.3 14.7 11.3 82 1.6 CALM 0 0 0 0 1015.7 1015.7 0.0
26/02:00am 14.9 15.4 11.7 81 1.7 CALM 0 0 0 0 1015.9 1015.9 0.0
26/01:30am 15.2 15.7 11.6 79 1.9 CALM 0 0 0 0 1016.2 1016.2 0.0
26/01:00am 15.5 15.9 11.1 75 2.3 CALM 0 0 0 0 1016.1 1016.1 0.0
26/12:30am 16.8 17.3 11.7 72 2.8 CALM 0 0 0 0 1016.3 1016.3 0.0
26/12:00am 17.7 17.0 11.9 69 3.2 NW 7 11 4 6 1016.5 1016.5 0.0
 
Date/Time
EDT
Temp
°C
App
Temp
°C
Dew
Point
Rel
Hum
%
Delta-T
°C
Wind Press
QNH
hPa
Press
MSL
hPa
Rain
since 9 am
mm
Dir
 
Spd
km/h
Gust
km/h
Spd
kts
Gust
kts
25/11:30pm 18.3 17.1 11.6 65 3.7 NNW 9 19 5 10 1016.8 1016.8 0.0
25/11:00pm 18.2 16.2 11.5 65 3.7 NNW 13 19 7 10 1016.9 1016.9 0.0
25/10:30pm 18.3 16.7 11.6 65 3.7 NNW 11 15 6 8 1016.9 1016.9 0.0
25/10:00pm 18.3 16.7 11.4 64 3.8 NNW 11 17 6 9 1017.0 1017.0 0.0
25/09:30pm 18.5 16.8 11.1 62 4.0 NNW 11 17 6 9 1017.1 1017.1 0.0
25/09:00pm 18.6 17.6 10.9 61 4.2 N 7 11 4 6 1017.0 1017.0 0.0
25/08:30pm 18.8 17.8 10.9 60 4.3 N 7 13 4 7 1016.9 1016.9 0.0
25/08:00pm 18.6 17.4 10.4 59 4.4 NNE 7 15 4 8 1016.6 1016.6 0.0
25/07:30pm 18.6 17.1 10.4 59 4.4 NE 9 17 5 9 1016.4 1016.4 0.0
25/07:00pm 18.6 17.4 10.2 58 4.5 NE 7 13 4 7 1016.5 1016.5 0.0
25/06:30pm 18.8 16.5 10.6 59 4.4 ENE 13 19 7 10 1016.2 1016.2 0.0
25/06:00pm 18.9 17.1 11.0 60 4.3 ENE 11 17 6 9 1016.2 1016.2 0.0
25/05:30pm 19.0 17.6 10.8 59 4.4 E 9 15 5 8 1016.3 1016.3 0.0
25/05:00pm 19.7 17.4 10.4 55 5.0 E 13 22 7 12 1016.3 1016.3 0.0
25/04:30pm 20.7 18.6 11.3 55 5.2 ESE 13 20 7 11 1016.4 1016.4 0.0
25/04:00pm 20.6 18.5 11.2 55 5.2 ESE 13 19 7 10 1016.5 1016.5 0.0
25/03:30pm 21.4 19.5 11.7 54 5.4 ESE 13 17 7 9 1016.9 1016.9 0.0
25/03:00pm 20.2 18.3 11.7 58 4.7 SE 13 19 7 10 1017.2 1017.2 0.0
25/02:30pm 20.1 18.0 11.3 57 4.8 ESE 13 19 7 10 1017.2 1017.2 0.0
25/02:00pm 20.4 19.3 11.9 58 4.7 ESE 9 15 5 8 1017.4 1017.4 0.0
25/01:30pm 19.6 18.1 11.9 61 4.3 ESE 11 20 6 11 1017.4 1017.4 0.0
25/01:00pm 18.8 17.2 11.6 63 3.9 ESE 11 17 6 9 1018.0 1018.0 0.0
25/12:30pm 19.7 17.9 10.9 57 4.8 SE 11 17 6 9 1017.7 1017.7 0.0
25/12:00pm 19.2 18.0 11.5 61 4.2 SSE 9 15 5 8 1017.9 1017.9 0.0
25/11:30am 20.3 18.6 11.2 56 5.0 SSE 11 20 6 11 1018.0 1018.0 0.0
25/11:00am 19.0 16.8 10.8 59 4.4 SSE 13 17 7 9 1018.0 1018.0 0.0
25/10:30am 17.9 15.6 10.3 61 4.1 SSW 13 20 7 11 1018.3 1018.3 0.0
25/10:00am 18.4 16.7 11.2 63 3.9 SSW 11 15 6 8 1018.4 1018.4 0.0
25/09:30am 18.7 16.5 10.8 60 4.3 WSW 13 20 7 11 1018.1 1018.1 0.0
25/09:00am 17.9 16.1 10.8 63 3.8 W 11 17 6 9 1018.2 1018.2 0.2
25/08:30am 16.5 15.2 11.4 72 2.8 WNW 9 11 5 6 1018.1 1018.1 0.2
25/08:00am 14.5 13.8 12.0 85 1.3 NW 7 11 4 6 1017.4 1017.4 0.2
25/07:30am 13.0 11.7 11.4 90 0.8 W 9 11 5 6 1017.1 1017.1 0.2
25/07:00am 12.6 12.1 10.8 89 0.9 WSW 4 7 2 4 1017.0 1017.0 0.2
25/06:30am 12.9 11.8 10.8 87 1.1 WSW 7 11 4 6 1016.6 1016.6 0.2
25/06:00am 12.8 11.7 10.5 86 1.2 SSW 7 9 4 5 1016.2 1016.2 0.2
25/05:30am 12.7 11.7 10.2 85 1.3 S 6 9 3 5 1015.8 1015.8 0.2
25/05:00am 13.9 12.5 10.9 82 1.6 SW 9 13 5 7 1015.9 1015.9 0.2
25/04:30am 13.9 12.5 10.9 82 1.6 SW 9 13 5 7 1015.6 1015.6 0.2
25/04:00am 14.5 13.5 11.1 80 1.8 SW 7 11 4 6 1015.4 1015.4 0.2
25/03:30am 14.8 13.5 11.4 80 1.8 W 9 13 5 7 1015.5 1015.5 0.2
25/03:00am 15.0 14.2 11.6 80 1.8 WSW 7 13 4 7 1015.6 1015.6 0.2
25/02:30am 15.5 13.9 11.7 78 2.1 WSW 11 17 6 9 1015.7 1015.7 0.2
25/02:00am 15.8 13.9 11.8 77 2.2 SW 13 20 7 11 1016.0 1016.0 0.2
25/01:30am 15.7 13.8 11.7 77 2.2 SW 13 19 7 10 1015.9 1015.9 0.2
25/01:00am 15.3 14.0 11.1 76 2.2 SW 9 13 5 7 1015.8 1015.8 0.2
25/12:30am 15.2 13.4 11.0 76 2.2 SSW 11 17 6 9 1015.6 1015.6 0.2
25/12:00am 15.6 13.1 11.0 74 2.4 SW 15 22 8 12 1015.4 1015.4 0.2
 
Date/Time
EDT
Temp
°C
App
Temp
°C
Dew
Point
Rel
Hum
%
Delta-T
°C
Wind Press
QNH
hPa
Press
MSL
hPa
Rain
since 9 am
mm
Dir
 
Spd
km/h
Gust
km/h
Spd
kts
Gust
kts
24/11:30pm 15.4 13.5 10.6 73 2.5 SW 11 17 6 9 1015.4 1015.4 0.2
24/11:00pm 16.2 14.6 10.3 68 3.1 SW 9 17 5 9 1015.4 1015.4 0.2
24/10:30pm 16.8 13.8 10.6 67 3.3 WSW 17 26 9 14 1015.3 1015.3 0.2
24/10:00pm 16.7 14.0 10.3 66 3.4 WSW 15 26 8 14 1015.1 1015.1 0.2
24/09:30pm 17.2 13.2 10.3 64 3.7 SW 22 30 12 16 1014.9 1014.9 0.2

Other Formats:

Comma delimited format used in spreadsheet applications
http://www.bom.gov.au/fwo/IDN60801/IDN60801.95929.axf

JavaScript Object Notation format (JSON) in row-major order
http://www.bom.gov.au/fwo/IDN60801/IDN60801.95929.json